This is the latest recevied weather packets stored in our database for station/object KD8NVS-13. If no packets are shown the sender has not sent any weather packets the latest 10 day(s).
| Time | Temp. | Humidity | Pressure | Rain* | Wind** | Luminosity | Snow |
|---|---|---|---|---|---|---|---|
| 1777940822 | 20.56° C | 64% | 996 hPa | 0 mm | - | 3 W/m² | - |
| 1777940519 | 20.56° C | 63% | 996 hPa | 0 mm | - | 5 W/m² | - |
| 1777940216 | 20.56° C | 63% | 996 hPa | 0 mm | - | 6 W/m² | - |
| 1777939914 | 21.11° C | 61% | 996 hPa | 0 mm | - | 10 W/m² | - |
| 1777939611 | 21.67° C | 61% | 996 hPa | 0 mm | - | 13 W/m² | - |
| 1777939309 | 21.67° C | 59% | 996.3 hPa | 0 mm | - | 19 W/m² | - |
| 1777939004 | 22.78° C | 57% | 996 hPa | 0 mm | - | 24 W/m² | - |
| 1777938701 | 22.78° C | 54% | 996 hPa | 0 mm | - | 30 W/m² | - |
| 1777938398 | 22.78° C | 54% | 996.3 hPa | 0 mm | - | 38 W/m² | - |
| 1777938095 | 22.78° C | 54% | 996.3 hPa | 0 mm | - | 47 W/m² | - |
| 1777937791 | 22.78° C | 54% | 996.3 hPa | 0 mm | - | 55 W/m² | - |
| 1777937487 | 22.22° C | 56% | 996.3 hPa | 0 mm | - | 60 W/m² | - |
| 1777937185 | 22.22° C | 56% | 996.3 hPa | 0 mm | - | 50 W/m² | - |
| 1777936882 | 22.22° C | 55% | 996.3 hPa | 0 mm | - | 37 W/m² | - |
| 1777936578 | 22.78° C | 55% | 996.3 hPa | 0 mm | - | 39 W/m² | - |
| 1777936274 | 23.33° C | 53% | 996.3 hPa | 0 mm | - | 47 W/m² | - |
| 1777935970 | 22.78° C | 53% | 996.3 hPa | 0 mm | - | 87 W/m² | - |
| 1777935670 | 23.33° C | 54% | 996.6 hPa | 0 mm | - | 65 W/m² | - |
| 1777935367 | 23.89° C | 51% | 996.6 hPa | 0 mm | - | 121 W/m² | - |
| 1777935063 | 23.33° C | 53% | 997 hPa | 0 mm | - | 175 W/m² | - |
| 1777934760 | 23.33° C | 53% | 997 hPa | 0 mm | - | 175 W/m² | - |
| 1777934457 | 22.78° C | 52% | 997 hPa | 0 mm | - | 183 W/m² | - |
| 1777934155 | 22.78° C | 55% | 996.6 hPa | 0 mm | - | 126 W/m² | - |
| 1777933850 | 22.78° C | 54% | 996.6 hPa | 0 mm | - | 161 W/m² | - |
| 1777933547 | 23.33° C | 53% | 997 hPa | 0 mm | - | 215 W/m² | - |
* Rain latest hour (hover to see other rain measurements)
** Current wind speed in m/s (hover to see current wind gust speed)